createdAt,value
2017-04-15T00:00:38.909Z,62.10
2017-04-15T00:01:37.932Z,61.90
2017-04-15T00:02:36.890Z,62.00
2017-04-15T00:03:35.895Z,62.20
2017-04-15T00:04:34.873Z,62.10
2017-04-15T00:05:33.896Z,62.30
2017-04-15T00:06:32.856Z,62.10
2017-04-15T00:07:31.823Z,62.30
2017-04-15T00:08:30.849Z,62.10
2017-04-15T00:09:29.476Z,62.10
2017-04-15T00:10:28.437Z,62.50
2017-04-15T00:11:27.444Z,62.70
2017-04-15T00:12:26.049Z,62.70
2017-04-15T00:13:25.176Z,62.70
2017-04-15T00:14:24.175Z,62.80
2017-04-15T00:15:23.172Z,62.70
2017-04-15T00:16:22.217Z,62.60
2017-04-15T00:17:21.197Z,62.70
2017-04-15T00:18:20.164Z,62.40
2017-04-15T00:19:19.569Z,62.40
2017-04-15T00:20:18.688Z,62.50
2017-04-15T00:21:17.676Z,62.90
2017-04-15T00:22:16.657Z,62.80
2017-04-15T00:23:15.645Z,62.70
2017-04-15T00:24:14.951Z,62.60
2017-04-15T00:25:13.986Z,62.90
2017-04-15T00:26:13.276Z,62.90
2017-04-15T00:27:12.267Z,62.90
2017-04-15T00:28:11.360Z,62.80
2017-04-15T00:29:10.349Z,63.00
2017-04-15T00:30:09.364Z,63.40
2017-04-15T00:31:09.095Z,63.40
2017-04-15T00:32:08.053Z,63.40
2017-04-15T00:33:07.081Z,63.30
2017-04-15T00:34:06.054Z,63.10
2017-04-15T00:35:05.065Z,63.20
2017-04-15T00:36:04.086Z,63.40
2017-04-15T00:37:03.356Z,63.00
2017-04-15T00:38:02.387Z,63.30
2017-04-15T00:39:01.412Z,63.30
2017-04-15T00:40:00.423Z,63.30
2017-04-15T00:40:59.464Z,63.60
2017-04-15T00:41:58.558Z,63.80
2017-04-15T00:42:57.607Z,63.80
2017-04-15T00:43:56.591Z,63.60
2017-04-15T00:44:55.591Z,63.70
2017-04-15T00:45:54.575Z,63.70
2017-04-15T00:46:53.536Z,63.80
2017-04-15T00:47:52.644Z,64.00
2017-04-15T00:48:51.671Z,64.20
2017-04-15T00:49:50.599Z,64.10
2017-04-15T00:50:49.615Z,64.00
2017-04-15T00:51:48.663Z,64.10
2017-04-15T00:52:47.618Z,64.20
2017-04-15T00:53:46.600Z,64.40
2017-04-15T00:54:45.993Z,64.50
2017-04-15T00:55:44.929Z,64.60
2017-04-15T00:56:44.012Z,64.50
2017-04-15T00:57:43.000Z,64.70
2017-04-15T00:58:42.009Z,65.50
2017-04-15T00:59:41.001Z,65.30
2017-04-15T01:00:40.019Z,65.70
2017-04-15T01:01:39.093Z,65.70
2017-04-15T01:02:37.680Z,65.70
2017-04-15T01:03:36.704Z,65.60
2017-04-15T01:04:35.624Z,66.20
2017-04-15T01:05:34.630Z,66.40
2017-04-15T01:06:33.555Z,66.00
2017-04-15T01:07:32.569Z,65.80
2017-04-15T01:08:32.236Z,66.30
2017-04-15T01:09:31.167Z,66.70
2017-04-15T01:10:30.193Z,66.20
2017-04-15T01:11:29.162Z,66.40
2017-04-15T01:12:28.124Z,66.00
2017-04-15T01:13:27.141Z,66.20
2017-04-15T01:14:26.120Z,66.80
2017-04-15T01:15:25.134Z,66.90
2017-04-15T01:16:24.070Z,66.60
2017-04-15T01:17:23.071Z,67.10
2017-04-15T01:18:22.069Z,66.50
2017-04-15T01:19:21.005Z,66.60
2017-04-15T01:20:20.046Z,67.00
2017-04-15T01:21:19.077Z,66.70
2017-04-15T01:22:18.150Z,67.00
2017-04-15T01:23:17.125Z,67.00
2017-04-15T01:24:16.155Z,66.60
2017-04-15T01:25:15.143Z,66.60
2017-04-15T01:26:14.520Z,66.60
2017-04-15T01:27:13.559Z,66.60
2017-04-15T01:28:12.492Z,66.90
2017-04-15T01:29:11.490Z,66.70
2017-04-15T01:30:10.458Z,67.00
2017-04-15T01:31:09.487Z,67.40
2017-04-15T01:32:08.527Z,66.90
2017-04-15T01:33:07.115Z,66.90
2017-04-15T01:34:06.251Z,67.90
2017-04-15T01:35:05.318Z,67.10
2017-04-15T01:36:04.399Z,67.60
2017-04-15T01:37:03.777Z,67.80
2017-04-15T01:38:02.787Z,67.40
2017-04-15T01:39:01.811Z,67.90
2017-04-15T01:40:00.785Z,67.40
2017-04-15T01:40:59.759Z,67.10
2017-04-15T01:41:58.717Z,66.90
2017-04-15T01:42:57.729Z,67.30
2017-04-15T01:43:56.817Z,67.60
2017-04-15T01:44:55.777Z,67.60
2017-04-15T01:45:54.824Z,68.00
2017-04-15T01:46:53.867Z,68.20
2017-04-15T01:47:52.837Z,68.50
2017-04-15T01:48:51.825Z,68.30
2017-04-15T01:49:50.791Z,67.60
2017-04-15T01:50:49.832Z,68.10
2017-04-15T01:51:48.814Z,68.70
2017-04-15T01:52:47.861Z,68.50
2017-04-15T01:53:46.805Z,68.70
2017-04-15T01:54:45.847Z,68.20
2017-04-15T01:55:45.611Z,68.10
2017-04-15T01:56:44.579Z,68.20
2017-04-15T01:57:43.605Z,67.90
2017-04-15T01:58:42.547Z,68.00
2017-04-15T01:59:41.530Z,68.70
2017-04-15T02:00:40.574Z,68.20
2017-04-15T02:01:39.662Z,68.40
2017-04-15T02:02:38.652Z,68.30
2017-04-15T02:03:37.697Z,68.40
2017-04-15T02:04:36.691Z,68.70
2017-04-15T02:05:35.735Z,68.60
2017-04-15T02:06:34.780Z,68.50
2017-04-15T02:07:33.809Z,68.90
2017-04-15T02:08:32.817Z,69.20
2017-04-15T02:09:31.857Z,69.50
2017-04-15T02:10:30.528Z,69.50
2017-04-15T02:11:29.522Z,69.70
2017-04-15T02:12:28.493Z,69.70
2017-04-15T02:13:27.551Z,69.60
2017-04-15T02:14:26.569Z,69.90
2017-04-15T02:15:25.667Z,70.20
2017-04-15T02:16:24.663Z,70.00
2017-04-15T02:17:23.647Z,69.90
2017-04-15T02:18:23.064Z,70.10
2017-04-15T02:19:22.158Z,69.70
2017-04-15T02:20:21.198Z,69.90
2017-04-15T02:21:20.183Z,70.30
2017-04-15T02:22:19.180Z,70.60
2017-04-15T02:23:18.132Z,70.50
2017-04-15T02:24:17.154Z,70.10
2017-04-15T02:25:16.575Z,70.30
2017-04-15T02:26:15.567Z,70.40
2017-04-15T02:27:14.558Z,70.40
2017-04-15T02:28:13.598Z,70.40
2017-04-15T02:29:12.525Z,71.00
2017-04-15T02:30:11.558Z,71.00
2017-04-15T02:31:10.529Z,69.90
2017-04-15T02:32:09.612Z,69.60
2017-04-15T02:33:08.203Z,69.60
2017-04-15T02:34:07.170Z,70.00
2017-04-15T02:35:06.139Z,70.20
2017-04-15T02:36:05.109Z,70.70
2017-04-15T02:37:04.188Z,70.40
2017-04-15T02:38:03.226Z,70.90
2017-04-15T02:39:02.188Z,70.90
2017-04-15T02:40:01.163Z,70.60
2017-04-15T02:41:00.171Z,70.70
2017-04-15T02:41:59.215Z,70.80
2017-04-15T02:42:58.248Z,70.60
2017-04-15T02:43:56.767Z,70.60
2017-04-15T02:44:55.788Z,70.70
2017-04-15T02:45:54.783Z,70.90
2017-04-15T02:46:54.143Z,71.50
2017-04-15T02:47:53.164Z,71.10
2017-04-15T02:48:52.172Z,71.10
2017-04-15T02:49:51.160Z,70.90
2017-04-15T02:50:50.247Z,71.10
2017-04-15T02:51:49.228Z,70.90
2017-04-15T02:52:48.231Z,71.10
2017-04-15T02:53:47.206Z,71.30
2017-04-15T02:54:46.651Z,71.50
2017-04-15T02:55:45.627Z,71.20
2017-04-15T02:56:44.596Z,71.40
2017-04-15T02:57:43.580Z,71.40
2017-04-15T02:58:42.538Z,71.00
2017-04-15T02:59:41.506Z,70.80
2017-04-15T03:00:40.587Z,71.60
2017-04-15T03:01:39.548Z,71.60
2017-04-15T03:02:38.575Z,71.30
2017-04-15T03:03:37.551Z,71.50
2017-04-15T03:04:36.574Z,71.90
2017-04-15T03:05:35.552Z,71.40
2017-04-15T03:06:34.565Z,70.90
2017-04-15T03:07:33.563Z,70.50
2017-04-15T03:08:32.508Z,71.20
2017-04-15T03:09:31.535Z,71.00
2017-04-15T03:10:30.486Z,71.00
2017-04-15T03:11:29.521Z,71.10
2017-04-15T03:12:28.524Z,71.20
2017-04-15T03:13:27.522Z,71.10
2017-04-15T03:14:26.563Z,71.20
2017-04-15T03:15:25.542Z,70.90
2017-04-15T03:16:24.511Z,71.00
2017-04-15T03:17:23.527Z,71.50
2017-04-15T03:18:22.571Z,71.10
2017-04-15T03:19:21.594Z,71.70
2017-04-15T03:20:20.583Z,71.50
2017-04-15T03:21:19.623Z,71.30
2017-04-15T03:22:18.978Z,71.70
2017-04-15T03:23:17.936Z,72.10
2017-04-15T03:24:16.544Z,72.10
2017-04-15T03:25:15.496Z,71.70
2017-04-15T03:26:14.531Z,71.90
2017-04-15T03:27:13.556Z,71.30
2017-04-15T03:28:12.576Z,71.20
2017-04-15T03:29:11.549Z,70.40
2017-04-15T03:30:10.524Z,69.80
2017-04-15T03:31:09.538Z,70.60
2017-04-15T03:32:08.504Z,69.90
2017-04-15T03:33:07.564Z,70.10
2017-04-15T03:34:06.532Z,69.80
2017-04-15T03:35:05.531Z,70.10
2017-04-15T03:36:04.551Z,71.00
2017-04-15T03:37:03.555Z,70.80
2017-04-15T03:38:02.567Z,70.70
2017-04-15T03:39:01.573Z,69.90
2017-04-15T03:40:00.579Z,70.20
2017-04-15T03:40:59.535Z,70.30
2017-04-15T03:41:58.532Z,70.60
2017-04-15T03:42:57.506Z,70.80
2017-04-15T03:43:56.518Z,70.60
2017-04-15T03:44:55.483Z,70.30
2017-04-15T03:45:54.444Z,70.00
2017-04-15T03:46:53.650Z,70.20
2017-04-15T03:47:52.684Z,70.20
2017-04-15T03:48:51.631Z,69.50
2017-04-15T03:49:50.648Z,69.80
2017-04-15T03:50:49.956Z,69.30
2017-04-15T03:51:48.945Z,69.50
2017-04-15T03:52:47.910Z,69.80
2017-04-15T03:53:46.925Z,69.60
2017-04-15T03:54:46.280Z,69.70
2017-04-15T03:55:45.233Z,69.30
2017-04-15T03:56:44.236Z,69.50
2017-04-15T03:57:43.244Z,69.90
2017-04-15T03:58:42.222Z,69.80
2017-04-15T03:59:41.247Z,69.70
2017-04-15T04:00:40.235Z,69.50
2017-04-15T04:01:39.228Z,69.80
2017-04-15T04:02:38.261Z,69.60
2017-04-15T04:03:37.249Z,69.50
2017-04-15T04:04:36.194Z,69.30
2017-04-15T04:05:35.234Z,69.40
2017-04-15T04:06:34.229Z,69.00
2017-04-15T04:07:33.204Z,69.00
2017-04-15T04:08:32.239Z,69.10
2017-04-15T04:09:31.267Z,69.30
2017-04-15T04:10:30.212Z,69.30
2017-04-15T04:11:29.267Z,69.10
2017-04-15T04:12:28.281Z,68.90
2017-04-15T04:13:27.259Z,69.20
2017-04-15T04:14:26.227Z,69.40
2017-04-15T04:15:25.215Z,69.50
2017-04-15T04:16:24.194Z,69.30
2017-04-15T04:17:22.823Z,69.30
2017-04-15T04:18:21.776Z,69.60
2017-04-15T04:19:20.739Z,69.80
2017-04-15T04:20:19.709Z,69.60
2017-04-15T04:21:19.151Z,70.00
2017-04-15T04:22:18.094Z,70.10
2017-04-15T04:23:17.135Z,70.20
2017-04-15T04:24:16.050Z,70.50
2017-04-15T04:25:15.075Z,70.60
2017-04-15T04:26:14.423Z,70.00
2017-04-15T04:27:13.423Z,69.70
2017-04-15T04:28:12.399Z,70.00
2017-04-15T04:29:11.396Z,70.20
2017-04-15T04:30:10.379Z,70.30
2017-04-15T04:31:09.372Z,70.10
2017-04-15T04:32:08.323Z,70.80
2017-04-15T04:33:07.304Z,70.30
2017-04-15T04:34:06.332Z,70.60
2017-04-15T04:35:05.327Z,70.20
2017-04-15T04:36:04.379Z,70.30
2017-04-15T04:37:03.382Z,70.40
2017-04-15T04:38:02.416Z,70.50
2017-04-15T04:39:00.979Z,70.50
2017-04-15T04:40:00.005Z,70.40
2017-04-15T04:40:59.011Z,70.30
2017-04-15T04:41:58.036Z,70.80
2017-04-15T04:42:56.971Z,70.80
2017-04-15T04:43:56.031Z,71.00
2017-04-15T04:44:54.624Z,71.00
2017-04-15T04:45:53.578Z,71.10
2017-04-15T04:46:52.591Z,70.80
2017-04-15T04:47:51.667Z,70.90
2017-04-15T04:48:50.647Z,71.00
2017-04-15T04:49:49.622Z,71.00
2017-04-15T04:50:48.620Z,71.60
2017-04-15T04:51:47.584Z,71.20
2017-04-15T04:52:46.625Z,71.40
2017-04-15T04:53:45.599Z,71.20
2017-04-15T04:54:44.571Z,71.20
2017-04-15T04:55:43.535Z,71.30
2017-04-15T04:56:42.532Z,71.50
2017-04-15T04:57:41.522Z,71.40
2017-04-15T04:58:40.547Z,71.20
2017-04-15T04:59:40.254Z,70.70
2017-04-15T05:00:39.338Z,70.80
2017-04-15T05:01:38.336Z,70.90
2017-04-15T05:02:37.275Z,71.00
2017-04-15T05:03:36.271Z,70.90
2017-04-15T05:04:35.423Z,70.90
2017-04-15T05:05:34.456Z,71.00
2017-04-15T05:06:33.383Z,70.90
2017-04-15T05:07:32.392Z,71.20
2017-04-15T05:08:31.378Z,71.00
2017-04-15T05:09:30.295Z,71.60
2017-04-15T05:10:29.347Z,71.90
2017-04-15T05:11:28.300Z,72.70
2017-04-15T05:12:27.293Z,72.90
2017-04-15T05:13:26.314Z,72.80
2017-04-15T05:14:25.307Z,72.30
2017-04-15T05:15:24.344Z,72.30
2017-04-15T05:16:23.331Z,72.00
2017-04-15T05:17:22.259Z,71.50
2017-04-15T05:18:21.306Z,71.60
2017-04-15T05:19:20.352Z,72.20
2017-04-15T05:20:19.367Z,72.40
2017-04-15T05:21:18.340Z,72.80
2017-04-15T05:22:17.321Z,72.70
2017-04-15T05:23:16.324Z,72.60
2017-04-15T05:24:15.379Z,71.30
2017-04-15T05:25:14.352Z,72.00
2017-04-15T05:26:13.391Z,71.10
2017-04-15T05:27:12.391Z,70.70
2017-04-15T05:28:11.364Z,71.50
2017-04-15T05:29:10.372Z,71.20
2017-04-15T05:30:09.346Z,70.50
2017-04-15T05:31:08.257Z,70.60
2017-04-15T05:32:07.297Z,70.40
2017-04-15T05:33:06.275Z,70.30
2017-04-15T05:34:05.444Z,70.80
2017-04-15T05:35:04.399Z,70.60
2017-04-15T05:36:03.424Z,71.80
2017-04-15T05:37:02.436Z,70.90
2017-04-15T05:38:01.423Z,70.50
2017-04-15T05:39:00.365Z,71.00
2017-04-15T05:40:00.158Z,69.90
2017-04-15T05:40:59.275Z,69.90
2017-04-15T05:41:58.220Z,69.90
2017-04-15T05:42:57.179Z,69.50
2017-04-15T05:43:56.188Z,69.70
2017-04-15T05:44:55.185Z,70.30
2017-04-15T05:45:54.536Z,70.30
2017-04-15T05:46:53.178Z,70.30
2017-04-15T05:47:52.204Z,69.40
2017-04-15T05:48:51.291Z,69.90
2017-04-15T05:49:50.221Z,69.70
2017-04-15T05:50:49.268Z,69.40
2017-04-15T05:51:48.207Z,69.70
2017-04-15T05:52:47.236Z,69.70
2017-04-15T05:53:46.211Z,69.80
2017-04-15T05:54:45.224Z,69.50
2017-04-15T05:55:44.203Z,69.20
2017-04-15T05:56:43.125Z,69.70
2017-04-15T05:57:42.145Z,69.70
2017-04-15T05:58:41.161Z,69.50
2017-04-15T05:59:40.174Z,69.70
2017-04-15T06:00:38.743Z,69.70
2017-04-15T06:01:37.755Z,69.90
2017-04-15T06:02:36.687Z,69.90
2017-04-15T06:03:35.715Z,70.20
2017-04-15T06:04:34.862Z,70.50
2017-04-15T06:05:33.795Z,70.30
2017-04-15T06:06:32.792Z,70.40
2017-04-15T06:07:31.782Z,70.20
2017-04-15T06:08:30.768Z,69.80
2017-04-15T06:09:29.774Z,69.90
2017-04-15T06:10:28.772Z,69.90
2017-04-15T06:11:27.767Z,69.80
2017-04-15T06:12:26.830Z,69.70
2017-04-15T06:13:26.179Z,69.80
2017-04-15T06:14:25.175Z,69.60
2017-04-15T06:15:24.183Z,70.00
2017-04-15T06:16:23.147Z,69.90
2017-04-15T06:17:22.111Z,69.20
2017-04-15T06:18:21.094Z,69.00
2017-04-15T06:19:20.067Z,69.30
2017-04-15T06:20:19.019Z,69.50
2017-04-15T06:21:18.024Z,69.40
2017-04-15T06:22:16.965Z,69.50
2017-04-15T06:23:16.734Z,69.10
2017-04-15T06:24:15.752Z,69.10
2017-04-15T06:25:15.103Z,69.20
2017-04-15T06:26:14.467Z,69.70
2017-04-15T06:27:13.411Z,69.50
2017-04-15T06:28:12.396Z,69.40
2017-04-15T06:29:11.387Z,69.40
2017-04-15T06:30:10.375Z,69.70
2017-04-15T06:31:09.372Z,70.30
2017-04-15T06:32:08.322Z,69.80
2017-04-15T06:33:07.300Z,69.70
2017-04-15T06:34:06.295Z,69.50
2017-04-15T06:35:05.340Z,70.10
2017-04-15T06:36:04.320Z,69.80
2017-04-15T06:37:03.269Z,69.50
2017-04-15T06:38:02.267Z,69.80
2017-04-15T06:39:00.949Z,69.80
2017-04-15T06:39:59.896Z,69.20
2017-04-15T06:40:58.961Z,69.80
2017-04-15T06:41:58.007Z,70.20
2017-04-15T06:42:57.007Z,70.10
2017-04-15T06:43:55.974Z,70.10
2017-04-15T06:44:54.940Z,69.70
2017-04-15T06:45:53.924Z,69.40
2017-04-15T06:46:52.857Z,69.10
2017-04-15T06:47:51.871Z,69.20
2017-04-15T06:48:50.849Z,68.80
2017-04-15T06:49:49.796Z,69.10
2017-04-15T06:50:48.856Z,69.30
2017-04-15T06:51:47.435Z,69.30
2017-04-15T06:52:46.409Z,69.20
2017-04-15T06:53:45.488Z,68.50
2017-04-15T06:54:44.443Z,68.00
2017-04-15T06:55:43.479Z,67.70
2017-04-15T06:56:42.519Z,68.10
2017-04-15T06:57:41.550Z,68.90
2017-04-15T06:58:40.571Z,68.70
2017-04-15T06:59:39.547Z,68.50
2017-04-15T07:00:38.576Z,67.70
2017-04-15T07:01:37.556Z,68.30
2017-04-15T07:02:44.769Z,68.00
2017-04-15T07:03:43.715Z,67.60
2017-04-15T07:04:42.751Z,67.50
2017-04-15T07:05:41.759Z,67.60
2017-04-15T07:06:40.758Z,67.60
2017-04-15T07:07:39.760Z,67.70
2017-04-15T07:08:38.717Z,66.50
2017-04-15T07:09:37.369Z,66.50
2017-04-15T07:10:36.347Z,67.10
2017-04-15T07:11:35.350Z,67.60
2017-04-15T07:12:34.378Z,67.60
2017-04-15T07:13:33.335Z,66.50
2017-04-15T07:14:32.379Z,66.70
2017-04-15T07:15:31.345Z,65.90
2017-04-15T07:16:30.392Z,67.20
2017-04-15T07:17:29.370Z,67.10
2017-04-15T07:18:28.379Z,67.20
2017-04-15T07:19:27.360Z,67.00
2017-04-15T07:20:26.349Z,67.10
2017-04-15T07:21:25.309Z,67.30
2017-04-15T07:22:24.284Z,67.10
2017-04-15T07:23:23.286Z,67.90
2017-04-15T07:24:22.307Z,67.40
2017-04-15T07:25:21.281Z,67.00
2017-04-15T07:26:20.267Z,66.40
2017-04-15T07:27:19.644Z,66.80
2017-04-15T07:28:18.674Z,66.30
2017-04-15T07:29:17.692Z,66.10
2017-04-15T07:30:16.675Z,66.80
2017-04-15T07:31:15.275Z,66.80
2017-04-15T07:32:14.267Z,67.30
2017-04-15T07:33:13.216Z,66.60
2017-04-15T07:34:12.200Z,67.10
2017-04-15T07:35:11.203Z,67.20
2017-04-15T07:36:10.283Z,67.00
2017-04-15T07:37:09.290Z,66.40
2017-04-15T07:38:08.293Z,66.50
2017-04-15T07:39:07.290Z,68.00
2017-04-15T07:40:06.286Z,67.60
2017-04-15T07:41:05.267Z,68.80
2017-04-15T07:42:03.828Z,68.70
2017-04-15T07:43:02.869Z,67.70
2017-04-15T07:44:01.927Z,66.20
2017-04-15T07:45:00.865Z,65.00
2017-04-15T07:45:59.878Z,65.40
2017-04-15T07:46:58.851Z,66.10
2017-04-15T07:47:58.197Z,65.10
2017-04-15T07:48:57.155Z,64.80
2017-04-15T07:49:56.202Z,65.00
2017-04-15T07:50:55.176Z,65.80
2017-04-15T07:51:54.151Z,65.50
2017-04-15T07:52:52.774Z,65.50
2017-04-15T07:53:51.756Z,65.20
2017-04-15T07:54:50.790Z,63.30
2017-04-15T07:55:49.787Z,63.40
2017-04-15T07:56:48.815Z,64.10
2017-04-15T07:57:48.258Z,63.00
2017-04-15T07:58:47.303Z,61.90
2017-04-15T07:59:46.271Z,62.30
2017-04-15T08:00:45.460Z,62.40
2017-04-15T08:01:44.426Z,62.10
2017-04-15T08:02:43.528Z,61.60
2017-04-15T08:03:42.568Z,61.10
2017-04-15T08:04:41.543Z,61.00
2017-04-15T08:05:40.612Z,61.50
2017-04-15T08:06:39.622Z,62.10
2017-04-15T08:07:38.686Z,62.90
2017-04-15T08:08:37.670Z,61.90
2017-04-15T08:09:36.650Z,61.30
2017-04-15T08:10:35.773Z,62.30
2017-04-15T08:11:34.809Z,62.00
2017-04-15T08:12:33.791Z,60.20
2017-04-15T08:13:32.855Z,59.80
2017-04-15T08:14:31.821Z,60.40
2017-04-15T08:15:31.175Z,60.30
2017-04-15T08:16:30.143Z,60.00
2017-04-15T08:17:29.127Z,60.60
2017-04-15T08:18:28.099Z,61.40
2017-04-15T08:19:26.795Z,61.40
2017-04-15T08:20:25.778Z,61.40
2017-04-15T08:21:24.803Z,62.40
2017-04-15T08:22:24.207Z,62.10
2017-04-15T08:23:23.219Z,63.10
2017-04-15T08:24:22.268Z,62.70
2017-04-15T08:25:21.275Z,62.80
2017-04-15T08:26:20.218Z,62.10
2017-04-15T08:27:19.221Z,62.20
2017-04-15T08:28:18.259Z,64.40
2017-04-15T08:29:17.223Z,64.50
2017-04-15T08:30:16.226Z,63.20
2017-04-15T08:31:15.254Z,62.90
2017-04-15T08:32:14.236Z,63.90
2017-04-15T08:33:13.193Z,63.80
2017-04-15T08:34:11.783Z,63.90
2017-04-15T08:35:10.827Z,62.70
2017-04-15T08:36:09.740Z,62.10
2017-04-15T08:37:08.747Z,62.30
2017-04-15T08:38:07.827Z,62.00
2017-04-15T08:39:06.814Z,64.00
2017-04-15T08:40:06.204Z,62.70
2017-04-15T08:41:04.849Z,62.70
2017-04-15T08:42:03.840Z,63.30
2017-04-15T08:43:02.891Z,62.80
2017-04-15T08:44:01.567Z,62.80
2017-04-15T08:45:00.526Z,62.90
2017-04-15T08:45:59.645Z,62.50
2017-04-15T08:46:58.624Z,62.20
2017-04-15T08:47:57.640Z,62.40
2017-04-15T08:48:56.666Z,63.80
2017-04-15T08:49:55.346Z,63.80
2017-04-15T08:50:54.294Z,61.50
2017-04-15T08:51:53.275Z,61.40
2017-04-15T08:52:52.255Z,61.40
2017-04-15T08:53:51.304Z,61.60
2017-04-15T08:54:50.278Z,62.50
2017-04-15T08:55:49.330Z,63.10
2017-04-15T08:56:48.711Z,62.00
2017-04-15T08:57:47.715Z,61.60
2017-04-15T08:58:46.733Z,61.60
2017-04-15T08:59:45.740Z,61.30
2017-04-15T09:00:44.755Z,60.00
2017-04-15T09:01:43.727Z,60.20
2017-04-15T09:02:42.696Z,59.40
2017-04-15T09:03:41.745Z,59.60
2017-04-15T09:04:40.710Z,60.30
2017-04-15T09:05:39.670Z,59.30
2017-04-15T09:06:38.677Z,59.10
2017-04-15T09:07:37.630Z,59.90
2017-04-15T09:08:36.850Z,60.70
2017-04-15T09:09:36.231Z,59.30
2017-04-15T09:10:35.223Z,59.70
2017-04-15T09:11:34.206Z,59.60
2017-04-15T09:12:33.203Z,59.10
2017-04-15T09:13:31.799Z,59.10
2017-04-15T09:14:30.787Z,59.60
2017-04-15T09:15:29.782Z,60.70
2017-04-15T09:16:28.779Z,59.50
2017-04-15T09:17:27.725Z,59.30
2017-04-15T09:18:26.740Z,59.50
2017-04-15T09:19:25.812Z,58.70
2017-04-15T09:20:24.870Z,59.10
2017-04-15T09:21:23.882Z,60.10
2017-04-15T09:22:22.891Z,58.80
2017-04-15T09:23:21.919Z,59.00
2017-04-15T09:24:20.866Z,58.60
2017-04-15T09:25:19.868Z,58.40
2017-04-15T09:26:18.845Z,59.20
2017-04-15T09:27:18.291Z,60.10
2017-04-15T09:28:17.321Z,59.10
2017-04-15T09:29:16.327Z,59.00
2017-04-15T09:30:15.362Z,58.70
2017-04-15T09:31:14.349Z,59.20
2017-04-15T09:32:13.378Z,58.80
2017-04-15T09:33:12.321Z,60.10
2017-04-15T09:34:11.330Z,60.60
2017-04-15T09:35:09.996Z,60.60
2017-04-15T09:36:09.000Z,59.20
2017-04-15T09:37:07.994Z,59.80
2017-04-15T09:38:07.005Z,60.80
2017-04-15T09:39:07.534Z,59.70
2017-04-15T09:40:06.533Z,60.40
2017-04-15T09:41:05.250Z,60.40
2017-04-15T09:42:04.401Z,59.90
2017-04-15T09:43:03.428Z,59.90
2017-04-15T09:44:02.381Z,60.20
2017-04-15T09:45:01.388Z,60.80
2017-04-15T09:46:00.422Z,60.60
2017-04-15T09:46:59.043Z,60.70
2017-04-15T09:47:58.108Z,60.20
2017-04-15T09:48:57.628Z,60.20
2017-04-15T09:49:56.680Z,59.60
2017-04-15T09:50:55.655Z,58.80
2017-04-15T09:51:54.691Z,57.40
2017-04-15T09:52:53.699Z,57.10
2017-04-15T09:53:52.673Z,57.10
2017-04-15T09:54:51.670Z,57.30
2017-04-15T09:55:50.790Z,57.60
2017-04-15T09:56:49.776Z,57.80
2017-04-15T09:57:48.752Z,56.70
2017-04-15T09:58:47.714Z,56.60
2017-04-15T09:59:46.707Z,56.90
2017-04-15T10:00:45.751Z,56.70
2017-04-15T10:01:45.483Z,57.10
2017-04-15T10:02:44.165Z,57.10
2017-04-15T10:03:43.198Z,58.20
2017-04-15T10:04:42.232Z,57.00
2017-04-15T10:05:41.190Z,56.60
2017-04-15T10:06:39.780Z,56.60
2017-04-15T10:07:38.822Z,57.10
2017-04-15T10:08:37.848Z,55.00
2017-04-15T10:09:37.081Z,55.00
2017-04-15T10:10:36.058Z,55.20
2017-04-15T10:11:35.080Z,55.30
2017-04-15T10:12:34.087Z,55.50
2017-04-15T10:13:33.091Z,55.20
2017-04-15T10:14:32.189Z,55.40
2017-04-15T10:15:31.212Z,55.80
2017-04-15T10:16:30.192Z,55.40
2017-04-15T10:17:29.234Z,56.80
2017-04-15T10:18:28.192Z,55.50
2017-04-15T10:19:27.210Z,55.40
2017-04-15T10:20:26.307Z,55.80
2017-04-15T10:21:25.623Z,56.30
2017-04-15T10:22:24.634Z,56.00
2017-04-15T10:23:23.623Z,55.50
2017-04-15T10:24:22.643Z,55.70
2017-04-15T10:25:21.997Z,56.00
2017-04-15T10:26:20.999Z,55.90
2017-04-15T10:27:20.010Z,55.50
2017-04-15T10:28:19.847Z,56.80
2017-04-15T10:29:18.864Z,56.50
2017-04-15T10:30:17.898Z,56.50
2017-04-15T10:31:16.976Z,57.00
2017-04-15T10:32:16.030Z,58.50
2017-04-15T10:33:15.096Z,57.40
2017-04-15T10:34:14.074Z,58.50
2017-04-15T10:35:13.085Z,56.40
2017-04-15T10:36:12.093Z,57.70
2017-04-15T10:37:11.058Z,55.90
2017-04-15T10:38:10.089Z,56.40
2017-04-15T10:39:09.135Z,57.30
2017-04-15T10:40:08.491Z,58.10
2017-04-15T10:41:07.480Z,58.30
2017-04-15T10:42:06.130Z,58.30
2017-04-15T10:43:05.476Z,56.60
2017-04-15T10:44:04.483Z,57.00
2017-04-15T10:45:03.490Z,56.70
2017-04-15T10:46:02.558Z,56.80
2017-04-15T10:47:01.821Z,56.90
2017-04-15T10:48:00.763Z,57.40
2017-04-15T10:48:59.829Z,57.60
2017-04-15T10:49:58.827Z,59.10
2017-04-15T10:50:57.935Z,57.90
2017-04-15T10:51:56.929Z,58.60
2017-04-15T10:52:55.947Z,57.90
2017-04-15T10:53:54.999Z,57.90
2017-04-15T10:54:53.988Z,56.90
2017-04-15T10:55:53.053Z,57.60
2017-04-15T10:56:52.135Z,57.30
2017-04-15T10:57:51.123Z,57.40
2017-04-15T10:58:50.115Z,57.90
2017-04-15T10:59:49.144Z,57.60
2017-04-15T11:00:48.132Z,58.40
2017-04-15T11:01:47.188Z,59.30
2017-04-15T11:02:46.160Z,57.30
2017-04-15T11:03:45.175Z,57.30
2017-04-15T11:04:44.248Z,57.90
2017-04-15T11:05:43.873Z,57.90
2017-04-15T11:06:43.062Z,57.50
2017-04-15T11:07:42.052Z,58.10
2017-04-15T11:08:41.176Z,58.40
2017-04-15T11:09:40.155Z,58.50
2017-04-15T11:10:39.090Z,58.30
2017-04-15T11:11:38.064Z,59.50
2017-04-15T11:12:37.015Z,58.70
2017-04-15T11:13:35.929Z,58.50
2017-04-15T11:14:34.927Z,58.20
2017-04-15T11:15:33.923Z,58.90
2017-04-15T11:16:32.948Z,57.90
2017-04-15T11:17:31.870Z,58.10
2017-04-15T11:18:30.903Z,58.20
2017-04-15T11:19:29.876Z,58.30
2017-04-15T11:20:28.895Z,57.80
2017-04-15T11:21:27.869Z,56.60
2017-04-15T11:22:26.856Z,58.00
2017-04-15T11:23:25.883Z,56.60
2017-04-15T11:24:24.859Z,56.10
2017-04-15T11:25:23.836Z,56.20
2017-04-15T11:26:22.879Z,56.10
2017-04-15T11:27:21.840Z,56.00
2017-04-15T11:28:20.831Z,56.30
2017-04-15T11:29:19.771Z,56.60
2017-04-15T11:30:18.767Z,56.40
2017-04-15T11:31:17.796Z,55.80
2017-04-15T11:32:16.813Z,56.10
2017-04-15T11:33:15.763Z,56.70
2017-04-15T11:34:14.786Z,56.10
2017-04-15T11:35:13.799Z,55.70
2017-04-15T11:36:12.754Z,56.90
2017-04-15T11:37:11.726Z,56.30
2017-04-15T11:38:10.323Z,56.30
2017-04-15T11:39:09.296Z,57.40
2017-04-15T11:40:07.923Z,57.40
2017-04-15T11:41:06.895Z,56.80
2017-04-15T11:42:05.859Z,58.40
2017-04-15T11:43:04.877Z,57.80
2017-04-15T11:44:04.981Z,56.80
2017-04-15T11:45:04.042Z,58.10
2017-04-15T11:46:03.043Z,58.90
2017-04-15T11:47:01.986Z,57.80
2017-04-15T11:48:00.923Z,57.20
2017-04-15T11:48:59.881Z,58.30
2017-04-15T11:49:58.899Z,58.00
2017-04-15T11:50:57.880Z,57.90
2017-04-15T11:51:56.850Z,57.50
2017-04-15T11:52:55.824Z,57.80
2017-04-15T11:53:54.864Z,58.30
2017-04-15T11:54:53.779Z,59.00
2017-04-15T11:55:52.791Z,59.70
2017-04-15T11:56:51.775Z,58.90
2017-04-15T11:57:51.094Z,60.00
2017-04-15T11:58:50.092Z,60.10
2017-04-15T11:59:49.124Z,59.80
2017-04-15T12:00:48.071Z,59.70
2017-04-15T12:01:47.087Z,59.70
2017-04-15T12:02:46.073Z,60.10
2017-04-15T12:03:45.046Z,60.30
2017-04-15T12:04:44.011Z,60.40
2017-04-15T12:05:42.616Z,60.40
2017-04-15T12:06:41.591Z,60.10
2017-04-15T12:07:40.605Z,60.10
2017-04-15T12:08:39.587Z,60.30
2017-04-15T12:09:38.558Z,59.80
2017-04-15T12:10:37.498Z,59.70
2017-04-15T12:11:36.460Z,59.50
2017-04-15T12:12:35.496Z,60.10
2017-04-15T12:13:34.485Z,60.80
2017-04-15T12:14:33.438Z,59.60
2017-04-15T12:15:32.408Z,59.40
2017-04-15T12:16:31.422Z,60.10
2017-04-15T12:17:30.419Z,60.00
2017-04-15T12:18:29.399Z,60.40
2017-04-15T12:19:28.542Z,60.60
2017-04-15T12:20:27.478Z,59.00
2017-04-15T12:21:26.439Z,59.10
2017-04-15T12:22:25.815Z,58.90
2017-04-15T12:23:24.780Z,58.90
2017-04-15T12:24:23.725Z,59.30
2017-04-15T12:25:22.742Z,58.80
2017-04-15T12:26:21.315Z,58.80
2017-04-15T12:27:20.311Z,59.00
2017-04-15T12:28:19.260Z,58.80
2017-04-15T12:29:18.254Z,58.50
2017-04-15T12:30:17.219Z,58.50
2017-04-15T12:31:16.230Z,59.20
2017-04-15T12:32:15.194Z,59.00
2017-04-15T12:33:14.183Z,58.40
2017-04-15T12:34:13.260Z,58.90
2017-04-15T12:35:12.620Z,59.10
2017-04-15T12:36:11.607Z,59.50
2017-04-15T12:37:10.624Z,59.60
2017-04-15T12:38:09.602Z,59.90
2017-04-15T12:39:08.609Z,60.20
2017-04-15T12:40:07.607Z,59.10